createdAt,value
2019-03-24T00:04:47.683Z,102652.95
2019-03-24T00:07:17.032Z,102645.93
2019-03-24T00:09:46.704Z,102657.13
2019-03-24T00:12:35.427Z,102652.72
2019-03-24T00:15:44.882Z,102647.05
2019-03-24T00:18:14.231Z,102650.73
2019-03-24T00:20:44.190Z,102654.42
2019-03-24T00:23:13.774Z,102655.05
2019-03-24T00:25:43.143Z,102660.89
2019-03-24T00:28:12.950Z,102650.30
2019-03-24T00:30:54.187Z,102648.12
2019-03-24T00:33:32.790Z,102652.17
2019-03-24T00:36:02.452Z,102648.70
2019-03-24T00:38:33.738Z,102647.89
2019-03-24T00:41:03.102Z,102653.34
2019-03-24T00:43:32.737Z,102644.15
2019-03-24T00:46:02.391Z,102650.06
2019-03-24T00:48:43.904Z,102646.31
2019-03-24T00:51:13.270Z,102646.31
2019-03-24T00:53:42.922Z,102649.50
2019-03-24T00:56:12.291Z,102639.83
2019-03-24T00:58:41.780Z,102641.69
2019-03-24T01:01:11.433Z,102634.61
2019-03-24T01:03:41.253Z,102633.31
2019-03-24T01:06:11.165Z,102626.65
2019-03-24T01:08:40.876Z,102632.03
2019-03-24T01:11:10.248Z,102623.13
2019-03-24T01:13:40.194Z,102622.84
2019-03-24T01:16:10.147Z,102620.65
2019-03-24T01:18:39.494Z,102616.70
2019-03-24T01:24:15.450Z,102615.42
2019-03-24T01:29:40.796Z,102616.84
2019-03-24T01:32:10.438Z,102616.84
2019-03-24T01:34:40.270Z,102616.03
2019-03-24T01:37:09.910Z,102609.03
2019-03-24T01:39:39.275Z,102604.65
2019-03-24T01:42:08.930Z,102601.17
2019-03-24T01:44:38.574Z,102602.59
2019-03-24T01:47:08.229Z,102605.36
2019-03-24T01:49:37.899Z,102597.88
2019-03-24T01:52:07.249Z,102593.50
2019-03-24T01:54:36.911Z,102594.88
2019-03-24T01:57:08.263Z,102594.92
2019-03-24T01:59:37.915Z,102591.88
2019-03-24T02:02:07.582Z,102591.02
2019-03-24T02:04:37.124Z,102587.49
2019-03-24T02:07:06.591Z,102587.97
2019-03-24T02:09:36.058Z,102585.78
2019-03-24T02:12:05.422Z,102585.35
2019-03-24T02:14:34.981Z,102589.34
2019-03-24T02:17:04.351Z,102587.62
2019-03-24T02:19:34.006Z,102584.10
2019-03-24T02:22:03.383Z,102583.28
2019-03-24T02:24:33.832Z,102584.23
2019-03-24T02:27:03.611Z,102584.79
2019-03-24T02:29:33.100Z,102580.41
2019-03-24T02:32:02.765Z,102580.92
2019-03-24T02:34:32.134Z,102585.05
2019-03-24T02:37:01.505Z,102588.73
2019-03-24T02:39:31.073Z,102587.60
2019-03-24T02:42:00.707Z,102586.39
2019-03-24T02:44:30.110Z,102586.03
2019-03-24T02:46:59.475Z,102586.03
2019-03-24T02:49:29.120Z,102588.70
2019-03-24T02:51:58.507Z,102589.98
2019-03-24T02:54:28.130Z,102588.19
2019-03-24T02:56:57.504Z,102586.82
2019-03-24T02:59:27.112Z,102587.28
2019-03-24T03:01:56.857Z,102581.11
2019-03-24T03:04:26.461Z,102577.55
2019-03-24T03:07:02.286Z,102575.35
2019-03-24T03:09:31.922Z,102569.99
2019-03-24T03:14:40.775Z,102573.47
2019-03-24T03:17:10.683Z,102567.72
2019-03-24T03:19:40.338Z,102566.35
2019-03-24T03:22:09.996Z,102569.05
2019-03-24T03:24:39.647Z,102562.83
2019-03-24T03:27:09.323Z,102570.38
2019-03-24T03:29:38.685Z,102555.75
2019-03-24T03:32:08.648Z,102560.20
2019-03-24T03:34:38.715Z,102557.59
2019-03-24T03:37:08.395Z,102553.59
2019-03-24T03:39:37.752Z,102551.83
2019-03-24T03:42:07.351Z,102550.46
2019-03-24T03:44:36.870Z,102548.23
2019-03-24T03:47:07.865Z,102539.86
2019-03-24T03:49:37.866Z,102536.34
2019-03-24T03:55:33.855Z,102530.16
2019-03-24T03:58:03.527Z,102523.50
2019-03-24T04:03:34.837Z,102527.50
2019-03-24T04:06:04.424Z,102521.31
2019-03-24T04:08:33.757Z,102523.08
2019-03-24T04:11:03.708Z,102523.59
2019-03-24T04:13:33.046Z,102524.61
2019-03-24T04:16:02.704Z,102527.81
2019-03-24T04:18:32.347Z,102533.72
2019-03-24T04:21:20.899Z,102533.91
2019-03-24T04:23:50.490Z,102535.74
2019-03-24T04:26:19.849Z,102529.02
2019-03-24T04:28:49.513Z,102536.89
2019-03-24T04:31:18.870Z,102535.05
2019-03-24T04:33:48.546Z,102538.53
2019-03-24T04:36:17.916Z,102526.05
2019-03-24T04:38:47.520Z,102525.51
2019-03-24T04:41:16.875Z,102517.48
2019-03-24T04:43:46.553Z,102517.84
2019-03-24T04:46:16.143Z,102513.84
2019-03-24T04:48:45.624Z,102516.08
2019-03-24T04:51:16.910Z,102514.27
2019-03-24T04:53:46.246Z,102504.96
2019-03-24T04:56:15.751Z,102504.96
2019-03-24T04:58:45.398Z,102511.48
2019-03-24T05:01:15.036Z,102506.08
2019-03-24T05:03:44.609Z,102506.47
2019-03-24T05:09:34.620Z,102505.57
2019-03-24T05:12:16.827Z,102510.20
2019-03-24T05:14:47.662Z,102510.20
2019-03-24T05:17:26.490Z,102515.09
2019-03-24T05:20:07.594Z,102518.53
2019-03-24T05:25:39.615Z,102523.17
2019-03-24T05:28:28.371Z,102521.28
2019-03-24T05:30:57.727Z,102517.72
2019-03-24T05:33:27.111Z,102517.29
2019-03-24T05:35:56.757Z,102516.82
2019-03-24T05:38:38.767Z,102512.70
2019-03-24T05:41:08.137Z,102512.70
2019-03-24T05:43:50.222Z,102503.84
2019-03-24T05:46:39.111Z,102498.56
2019-03-24T05:49:08.771Z,102504.36
2019-03-24T05:54:32.287Z,102500.46
2019-03-24T05:57:02.099Z,102503.98
2019-03-24T05:59:31.776Z,102500.89
2019-03-24T06:02:01.164Z,102495.47
2019-03-24T06:04:49.829Z,102499.81
2019-03-24T06:07:19.188Z,102492.59
2019-03-24T06:09:49.107Z,102496.06
2019-03-24T06:12:18.784Z,102491.17
2019-03-24T06:14:48.156Z,102492.88
2019-03-24T06:17:47.182Z,102480.47
2019-03-24T06:20:17.232Z,102477.28
2019-03-24T06:22:46.931Z,102477.63
2019-03-24T06:25:16.313Z,102472.68
2019-03-24T06:27:45.815Z,102471.20
2019-03-24T06:30:15.461Z,102483.99
2019-03-24T06:32:44.972Z,102479.85
2019-03-24T06:35:14.341Z,102479.45
2019-03-24T06:37:44.206Z,102479.45
2019-03-24T06:40:13.960Z,102473.91
2019-03-24T06:42:43.321Z,102471.04
2019-03-24T06:45:12.991Z,102456.70
2019-03-24T06:47:42.345Z,102466.78
2019-03-24T06:50:12.153Z,102457.23
2019-03-24T06:52:41.820Z,102460.95
2019-03-24T06:55:11.547Z,102458.95
2019-03-24T06:57:40.926Z,102450.80
2019-03-24T07:03:32.807Z,102460.16
2019-03-24T07:06:22.204Z,102460.16
2019-03-24T07:08:52.124Z,102468.53
2019-03-24T07:11:21.500Z,102459.06
2019-03-24T07:13:51.802Z,102462.88
2019-03-24T07:16:21.177Z,102466.12
2019-03-24T07:18:50.843Z,102449.30
2019-03-24T07:21:20.209Z,102442.88
2019-03-24T07:23:49.569Z,102453.20
2019-03-24T07:26:19.043Z,102457.81
2019-03-24T07:28:48.410Z,102461.19
2019-03-24T07:31:17.791Z,102457.25
2019-03-24T07:33:47.189Z,102457.86
2019-03-24T07:36:16.560Z,102459.55
2019-03-24T07:38:47.539Z,102460.75
2019-03-24T07:41:17.214Z,102463.91
2019-03-24T07:43:46.587Z,102455.19
2019-03-24T07:46:17.583Z,102454.91
2019-03-24T07:48:47.245Z,102451.86
2019-03-24T07:51:16.627Z,102440.63
2019-03-24T07:53:46.335Z,102433.03
2019-03-24T07:56:15.716Z,102446.19
2019-03-24T07:58:46.038Z,102446.70
2019-03-24T08:01:21.465Z,102445.59
2019-03-24T08:03:50.823Z,102444.53
2019-03-24T08:06:20.443Z,102443.95
2019-03-24T08:08:49.803Z,102445.92
2019-03-24T08:11:19.408Z,102449.84
2019-03-24T08:13:53.628Z,102454.14
2019-03-24T08:16:28.625Z,102455.77
2019-03-24T08:18:58.277Z,102452.45
2019-03-24T08:21:27.661Z,102447.31
2019-03-24T08:23:58.633Z,102458.14
2019-03-24T08:26:40.171Z,102455.05
2019-03-24T08:29:09.837Z,102458.31
2019-03-24T08:31:39.542Z,102456.95
2019-03-24T08:34:08.907Z,102451.23
2019-03-24T08:36:38.870Z,102447.95
2019-03-24T08:39:08.535Z,102446.30
2019-03-24T08:41:38.875Z,102449.99
2019-03-24T08:44:28.389Z,102439.73
2019-03-24T08:46:58.298Z,102427.55
2019-03-24T08:49:27.938Z,102414.67
2019-03-24T08:51:57.627Z,102417.58
2019-03-24T08:54:26.997Z,102417.25
2019-03-24T08:56:56.831Z,102412.83
2019-03-24T09:00:06.406Z,102402.41
2019-03-24T09:05:21.193Z,102401.12
2019-03-24T09:07:50.616Z,102395.52
2019-03-24T09:10:51.209Z,102395.02
2019-03-24T09:13:20.913Z,102388.28
2019-03-24T09:15:50.512Z,102379.29
2019-03-24T09:18:19.886Z,102375.02
2019-03-24T09:20:49.463Z,102381.24
2019-03-24T09:23:18.839Z,102375.08
2019-03-24T09:26:07.832Z,102375.14
2019-03-24T09:28:37.505Z,102375.14
2019-03-24T09:31:06.860Z,102373.67
2019-03-24T09:33:36.540Z,102356.13
2019-03-24T09:36:06.018Z,102365.80
2019-03-24T09:38:47.393Z,102371.34
2019-03-24T09:41:16.788Z,102371.34
2019-03-24T09:43:46.160Z,102363.27
2019-03-24T09:46:15.637Z,102369.19
2019-03-24T09:48:45.015Z,102366.63
2019-03-24T09:51:14.679Z,102355.63
2019-03-24T09:53:45.688Z,102364.96
2019-03-24T09:56:16.669Z,102359.63
2019-03-24T09:58:46.054Z,102366.27
2019-03-24T10:01:15.641Z,102366.99
2019-03-24T10:03:45.041Z,102354.02
2019-03-24T10:06:14.702Z,102345.31
2019-03-24T10:08:47.213Z,102344.25
2019-03-24T10:11:26.509Z,102330.47
2019-03-24T10:13:56.989Z,102318.84
2019-03-24T10:16:26.547Z,102328.66
2019-03-24T10:18:56.969Z,102323.53
2019-03-24T10:21:45.923Z,102324.73
2019-03-24T10:24:15.597Z,102324.73
2019-03-24T10:26:44.962Z,102319.66
2019-03-24T10:29:14.641Z,102316.12
2019-03-24T10:31:44.005Z,102315.38
2019-03-24T10:34:13.667Z,102304.89
2019-03-24T10:36:43.025Z,102294.40
2019-03-24T10:39:12.966Z,102281.23
2019-03-24T10:41:42.676Z,102283.42
2019-03-24T10:44:12.055Z,102282.22
2019-03-24T10:46:41.712Z,102279.61
2019-03-24T10:49:11.094Z,102277.56
2019-03-24T10:51:40.754Z,102272.81
2019-03-24T10:54:10.131Z,102273.84
2019-03-24T10:56:39.920Z,102268.13
2019-03-24T10:59:09.599Z,102271.42
2019-03-24T11:01:46.816Z,102272.22
2019-03-24T11:04:16.206Z,102264.34
2019-03-24T11:06:45.763Z,102269.55
2019-03-24T11:09:15.105Z,102269.55
2019-03-24T11:11:44.745Z,102271.41
2019-03-24T11:14:14.132Z,102263.44
2019-03-24T11:16:43.657Z,102258.95
2019-03-24T11:19:13.330Z,102266.34
2019-03-24T11:21:42.813Z,102256.60
2019-03-24T11:24:12.192Z,102247.06
2019-03-24T11:26:41.748Z,102245.00
2019-03-24T11:29:31.051Z,102253.09
2019-03-24T11:32:00.711Z,102248.53
2019-03-24T11:34:30.092Z,102246.51
2019-03-24T11:37:18.873Z,102246.41
2019-03-24T11:39:48.246Z,102242.69
2019-03-24T11:42:17.854Z,102246.22
2019-03-24T11:44:48.049Z,102246.15
2019-03-24T11:47:26.281Z,102231.86
2019-03-24T11:49:58.140Z,102232.09
2019-03-24T11:52:27.746Z,102238.84
2019-03-24T11:54:57.163Z,102228.30
2019-03-24T11:57:26.821Z,102230.98
2019-03-24T11:59:57.327Z,102219.58
2019-03-24T12:05:49.893Z,102216.70
2019-03-24T12:08:20.901Z,102214.09
2019-03-24T12:10:50.273Z,102213.61
2019-03-24T12:13:20.306Z,102214.48
2019-03-24T12:15:49.962Z,102215.24
2019-03-24T12:18:19.335Z,102210.03
2019-03-24T12:23:17.444Z,102200.19
2019-03-24T12:25:46.987Z,102196.43
2019-03-24T12:28:16.344Z,102193.44
2019-03-24T12:30:45.942Z,102185.02
2019-03-24T12:33:16.035Z,102186.35
2019-03-24T12:35:45.414Z,102189.80
2019-03-24T12:38:14.950Z,102181.14
2019-03-24T12:44:12.768Z,102165.03
2019-03-24T12:46:42.131Z,102165.03
2019-03-24T12:49:11.539Z,102165.37
2019-03-24T12:51:40.966Z,102153.89
2019-03-24T12:54:10.333Z,102158.06
2019-03-24T12:56:40.145Z,102148.22
2019-03-24T12:59:09.806Z,102151.98
2019-03-24T13:01:39.164Z,102139.19
2019-03-24T13:04:08.828Z,102128.90
2019-03-24T13:06:38.183Z,102130.42
2019-03-24T13:09:47.890Z,102129.01
2019-03-24T13:12:17.249Z,102120.88
2019-03-24T13:14:52.587Z,102120.41
2019-03-24T13:17:29.018Z,102112.47
2019-03-24T13:19:58.699Z,102116.33
2019-03-24T13:22:28.120Z,102114.96
2019-03-24T13:24:57.564Z,102111.53
2019-03-24T13:27:27.134Z,102103.12
2019-03-24T13:30:09.896Z,102106.56
2019-03-24T13:32:39.623Z,102101.91
2019-03-24T13:35:09.349Z,102101.03
2019-03-24T13:37:38.704Z,102101.25
2019-03-24T13:40:08.451Z,102089.98
2019-03-24T13:42:38.001Z,102082.92
2019-03-24T13:48:09.402Z,102088.25
2019-03-24T13:50:39.095Z,102083.18
2019-03-24T13:53:08.748Z,102083.55
2019-03-24T13:55:38.224Z,102075.64
2019-03-24T14:01:17.093Z,102075.41
2019-03-24T14:03:46.462Z,102060.66
2019-03-24T14:06:16.126Z,102069.66
2019-03-24T14:08:45.480Z,102065.30
2019-03-24T14:11:15.373Z,102055.44
2019-03-24T14:13:44.722Z,102054.18
2019-03-24T14:16:14.976Z,102047.66
2019-03-24T14:18:44.335Z,102044.95
2019-03-24T14:21:13.698Z,102047.06
2019-03-24T14:23:43.316Z,102031.93
2019-03-24T14:26:12.686Z,102029.05
2019-03-24T14:28:42.190Z,102022.00
2019-03-24T14:31:11.581Z,102025.27
2019-03-24T14:33:42.546Z,102025.39
2019-03-24T14:36:52.249Z,102021.77
2019-03-24T14:39:21.619Z,102011.33
2019-03-24T14:41:51.296Z,102018.71
2019-03-24T14:44:20.633Z,102018.48
2019-03-24T14:46:50.342Z,102023.55
2019-03-24T14:49:19.707Z,102010.31
2019-03-24T14:51:49.212Z,102012.08
2019-03-24T14:54:18.906Z,102005.92
2019-03-24T14:56:48.364Z,102006.78
2019-03-24T14:59:17.718Z,102001.80
2019-03-24T15:01:47.352Z,101992.20
2019-03-24T15:04:16.776Z,101990.97
2019-03-24T15:06:46.337Z,101991.58
2019-03-24T15:09:15.686Z,101982.69
2019-03-24T15:11:45.367Z,101966.00
2019-03-24T15:14:14.725Z,101970.70
2019-03-24T15:16:44.319Z,101971.07
2019-03-24T15:19:13.677Z,101970.73
2019-03-24T15:21:43.329Z,101976.27
2019-03-24T15:27:27.366Z,101972.44
2019-03-24T15:29:57.581Z,101967.48
2019-03-24T15:32:26.939Z,101972.63
2019-03-24T15:34:57.752Z,101971.17
2019-03-24T15:37:27.364Z,101969.78
2019-03-24T15:39:57.737Z,101965.72
2019-03-24T15:42:27.258Z,101965.72
2019-03-24T15:44:57.731Z,101957.89
2019-03-24T15:47:47.846Z,101955.30
2019-03-24T15:50:17.415Z,101952.78
2019-03-24T15:53:07.970Z,101951.27
2019-03-24T15:55:37.356Z,101942.20
2019-03-24T15:58:07.259Z,101941.77
2019-03-24T16:00:57.862Z,101930.67
2019-03-24T16:03:27.803Z,101936.73
2019-03-24T16:05:57.872Z,101934.34
2019-03-24T16:08:27.643Z,101934.55
2019-03-24T16:10:57.745Z,101930.17
2019-03-24T16:13:28.717Z,101932.50
2019-03-24T16:15:58.410Z,101924.74
2019-03-24T16:18:27.764Z,101931.66
2019-03-24T16:20:57.878Z,101934.54
2019-03-24T16:23:28.851Z,101925.42
2019-03-24T16:25:58.516Z,101925.41
2019-03-24T16:28:27.873Z,101910.73
2019-03-24T16:30:57.829Z,101925.29
2019-03-24T16:33:27.815Z,101932.55
2019-03-24T16:35:58.144Z,101924.02
2019-03-24T16:41:06.664Z,101914.81
2019-03-24T16:43:36.019Z,101905.41
2019-03-24T16:46:05.972Z,101902.32
2019-03-24T16:48:47.370Z,101910.75
2019-03-24T16:51:16.758Z,101909.83
2019-03-24T16:53:57.863Z,101909.36
2019-03-24T16:56:27.534Z,101906.73
2019-03-24T16:58:57.971Z,101908.52
2019-03-24T17:01:27.628Z,101900.56
2019-03-24T17:03:58.245Z,101904.13
2019-03-24T17:06:27.779Z,101904.13
2019-03-24T17:08:58.119Z,101896.91
2019-03-24T17:11:28.084Z,101899.28
2019-03-24T17:13:58.084Z,101896.22
2019-03-24T17:16:27.645Z,101900.09
2019-03-24T17:18:58.126Z,101897.14
2019-03-24T17:21:28.063Z,101902.66
2019-03-24T17:23:59.070Z,101903.34
2019-03-24T17:26:28.764Z,101903.47
2019-03-24T17:28:58.198Z,101894.11
2019-03-24T17:31:27.727Z,101896.53
2019-03-24T17:33:57.713Z,101895.25
2019-03-24T17:36:27.072Z,101888.13
2019-03-24T17:38:57.835Z,101891.14
2019-03-24T17:41:28.812Z,101891.50
2019-03-24T17:44:03.086Z,101893.91
2019-03-24T17:46:34.894Z,101892.27
2019-03-24T17:49:04.275Z,101886.77
2019-03-24T17:51:33.914Z,101885.02
2019-03-24T17:54:03.638Z,101885.02
2019-03-24T17:56:33.017Z,101887.14
2019-03-24T17:59:02.432Z,101880.60
2019-03-24T18:01:31.882Z,101880.69
2019-03-24T18:04:01.554Z,101874.89
2019-03-24T18:06:30.935Z,101874.75
2019-03-24T18:09:00.293Z,101876.74
2019-03-24T18:11:30.591Z,101870.05
2019-03-24T18:14:00.092Z,101866.55
2019-03-24T18:16:31.079Z,101864.16
2019-03-24T18:19:19.795Z,101865.77
2019-03-24T18:24:49.808Z,101863.80
2019-03-24T18:27:19.180Z,101866.48
2019-03-24T18:29:48.846Z,101857.73
2019-03-24T18:32:37.327Z,101856.74
2019-03-24T18:35:47.060Z,101851.72
2019-03-24T18:38:16.456Z,101853.88
2019-03-24T18:40:45.844Z,101853.98
2019-03-24T18:43:15.512Z,101845.28
2019-03-24T18:45:57.221Z,101851.71
2019-03-24T18:48:26.897Z,101851.71
2019-03-24T18:50:56.560Z,101847.97
2019-03-24T18:53:25.946Z,101845.38
2019-03-24T18:55:55.310Z,101846.33
2019-03-24T18:58:37.422Z,101854.16
2019-03-24T19:01:07.150Z,101854.16
2019-03-24T19:03:36.677Z,101849.14
2019-03-24T19:06:06.296Z,101848.89
2019-03-24T19:08:36.025Z,101846.27
2019-03-24T19:11:05.382Z,101846.59
2019-03-24T19:13:34.985Z,101853.02
2019-03-24T19:16:04.376Z,101856.99
2019-03-24T19:18:34.015Z,101851.56
2019-03-24T19:21:03.407Z,101846.92
2019-03-24T19:23:52.330Z,101846.38
2019-03-24T19:26:22.017Z,101846.38
2019-03-24T19:28:51.365Z,101853.73
2019-03-24T19:31:20.997Z,101852.88
2019-03-24T19:33:50.420Z,101857.06
2019-03-24T19:36:20.436Z,101846.16
2019-03-24T19:43:02.903Z,101843.55
2019-03-24T19:45:32.510Z,101838.33
2019-03-24T19:48:21.523Z,101848.85
2019-03-24T19:50:51.100Z,101844.97
2019-03-24T19:53:20.462Z,101842.38
2019-03-24T19:55:50.050Z,101834.06
2019-03-24T19:58:19.395Z,101836.98
2019-03-24T20:00:48.777Z,101839.34
2019-03-24T20:03:58.606Z,101824.34
2019-03-24T20:06:41.057Z,101831.45
2019-03-24T20:09:10.401Z,101831.45
2019-03-24T20:11:40.120Z,101825.86
2019-03-24T20:14:09.578Z,101825.45
2019-03-24T20:16:39.308Z,101826.19
2019-03-24T20:19:08.689Z,101826.19
2019-03-24T20:21:58.991Z,101811.34
2019-03-24T20:24:28.620Z,101811.34
2019-03-24T20:26:58.473Z,101813.27
2019-03-24T20:29:28.076Z,101805.18
2019-03-24T20:31:58.510Z,101805.18
2019-03-24T20:34:47.703Z,101800.89
2019-03-24T20:37:17.136Z,101800.89
2019-03-24T20:39:46.501Z,101805.80
2019-03-24T20:42:16.214Z,101806.42
2019-03-24T20:44:45.559Z,101796.64
2019-03-24T20:47:34.517Z,101784.31
2019-03-24T20:53:17.657Z,101784.31
2019-03-24T20:55:42.513Z,101774.70
2019-03-24T20:58:11.883Z,101773.49
2019-03-24T21:00:53.610Z,101775.41
2019-03-24T21:03:23.304Z,101775.41
2019-03-24T21:05:52.653Z,101763.08
2019-03-24T21:08:35.094Z,101765.03
2019-03-24T21:11:04.502Z,101765.03
2019-03-24T21:13:34.155Z,101766.70
2019-03-24T21:16:25.565Z,101760.40
2019-03-24T21:19:01.750Z,101759.59
2019-03-24T21:21:32.727Z,101754.77
2019-03-24T21:26:59.611Z,101753.20
2019-03-24T21:29:29.291Z,101751.86
2019-03-24T21:31:58.650Z,101751.86
2019-03-24T21:34:29.640Z,101743.08
2019-03-24T21:36:59.338Z,101737.72
2019-03-24T21:39:28.752Z,101743.96
2019-03-24T21:41:58.843Z,101729.31
2019-03-24T21:44:28.408Z,101731.80
2019-03-24T21:46:59.559Z,101724.03
2019-03-24T21:49:29.546Z,101720.18
2019-03-24T21:51:59.312Z,101732.52
2019-03-24T21:54:28.708Z,101726.97
2019-03-24T21:56:58.830Z,101723.16
2019-03-24T21:59:28.524Z,101720.89
2019-03-24T22:01:58.778Z,101724.98
2019-03-24T22:04:40.622Z,101715.83
2019-03-24T22:07:10.587Z,101715.83
2019-03-24T22:09:39.954Z,101713.88
2019-03-24T22:12:09.618Z,101709.06
2019-03-24T22:14:39.275Z,101692.44
2019-03-24T22:17:08.713Z,101692.44
2019-03-24T22:19:38.761Z,101697.27
2019-03-24T22:22:28.911Z,101694.59
2019-03-24T22:24:58.818Z,101692.28
2019-03-24T22:27:28.742Z,101689.16
2019-03-24T22:29:58.780Z,101684.83
2019-03-24T22:32:28.445Z,101686.77
2019-03-24T22:34:58.781Z,101677.25
2019-03-24T22:37:28.421Z,101676.47
2019-03-24T22:39:58.852Z,101663.55
2019-03-24T22:42:28.577Z,101661.09
2019-03-24T22:44:58.811Z,101654.20
2019-03-24T22:47:28.429Z,101651.88
2019-03-24T22:49:58.720Z,101651.59
2019-03-24T22:52:47.786Z,101645.19
2019-03-24T22:55:17.451Z,101626.76
2019-03-24T22:57:46.817Z,101626.14
2019-03-24T23:03:18.744Z,101610.25
2019-03-24T23:05:48.399Z,101604.62
2019-03-24T23:08:17.775Z,101598.11
2019-03-24T23:10:47.478Z,101594.34
2019-03-24T23:13:16.836Z,101579.47
2019-03-24T23:15:46.504Z,101583.47
2019-03-24T23:18:15.857Z,101576.18
2019-03-24T23:20:45.461Z,101567.44
2019-03-24T23:23:14.823Z,101573.30
2019-03-24T23:25:44.479Z,101565.77
2019-03-24T23:28:14.137Z,101557.77
2019-03-24T23:30:43.617Z,101563.03
2019-03-24T23:33:12.987Z,101546.23
2019-03-24T23:38:23.339Z,101543.28
2019-03-24T23:40:52.688Z,101535.67
2019-03-24T23:43:22.350Z,101534.87
2019-03-24T23:45:51.724Z,101530.09
2019-03-24T23:48:21.096Z,101522.48
2019-03-24T23:51:02.526Z,101516.58
2019-03-24T23:53:33.553Z,101512.94
2019-03-24T23:56:02.964Z,101505.63
2019-03-24T23:58:40.708Z,101500.61
